Time;durP1;ratioP1;P1;durP2;ratioP2;P2;SDS_P1;SDS_P2;PMS_P1;PMS_P2;Temp;Humidity;BMP_temperature;BMP_pressure;BME280_temperature;BME280_humidity;BME280_pressure;Samples;Min_cycle;Max_cycle;Signal;HPM_P1;HPM_P2
2021/01/10 00:00:14;;;;;;;13.23;7.10;;;;;;;;;;5070142;28;20454;-69
2021/01/10 00:02:41;;;;;;;8.83;6.77;;;;;;;;;;5069473;28;20503;-71
2021/01/10 00:05:09;;;;;;;10.33;6.80;;;;;;;;;;5067751;28;20454;-70
2021/01/10 00:07:35;;;;;;;11.27;6.40;;;;;;;;;;5069783;28;20595;-69
2021/01/10 00:10:02;;;;;;;11.40;6.80;;;;;;;;;;5059661;28;20485;-70
2021/01/10 00:12:29;;;;;;;11.33;6.50;;;;;;;;;;5081354;28;21007;-70
2021/01/10 00:14:56;;;;;;;11.90;6.87;;;;;;;;;;5087919;28;20536;-70
2021/01/10 00:17:23;;;;;;;11.80;6.90;;;;;;;;;;5070258;28;20874;-70
2021/01/10 00:19:50;;;;;;;9.93;6.47;;;;;;;;;;5069990;28;21124;-70
2021/01/10 00:22:18;;;;;;;10.37;6.40;;;;;;;;;;5069187;28;20462;-70
2021/01/10 00:24:45;;;;;;;11.93;7.13;;;;;;;;;;5074526;28;20591;-70
2021/01/10 00:27:12;;;;;;;11.53;7.43;;;;;;;;;;5069773;28;20449;-69
2021/01/10 00:29:39;;;;;;;12.20;7.00;;;;;;;;;;5069673;28;20964;-70
2021/01/10 00:32:06;;;;;;;8.20;5.87;;;;;;;;;;5068276;28;20459;-70
2021/01/10 00:34:33;;;;;;;10.30;7.50;;;;;;;;;;5069568;28;20453;-70
2021/01/10 00:37:00;;;;;;;7.60;5.83;;;;;;;;;;5068975;28;20449;-70
2021/01/10 00:39:27;;;;;;;10.70;7.00;;;;;;;;;;5069235;28;20453;-70
2021/01/10 00:41:54;;;;;;;10.17;6.90;;;;;;;;;;5069315;28;20500;-70
2021/01/10 00:44:20;;;;;;;16.60;10.27;;;;;;;;;;5068942;28;20489;-69
2021/01/10 00:46:47;;;;;;;18.33;10.30;;;;;;;;;;5069794;28;20576;-70
2021/01/10 00:49:14;;;;;;;17.20;10.00;;;;;;;;;;5068832;28;20548;-71
2021/01/10 00:51:40;;;;;;;11.70;9.50;;;;;;;;;;5068246;28;21004;-69
2021/01/10 00:54:08;;;;;;;15.93;10.43;;;;;;;;;;5068164;28;20481;-69
2021/01/10 00:56:35;;;;;;;16.70;10.00;;;;;;;;;;5067885;28;20587;-69
2021/01/10 00:59:01;;;;;;;17.80;12.13;;;;;;;;;;5068120;28;20537;-69
2021/01/10 01:01:28;;;;;;;19.63;11.40;;;;;;;;;;5068793;28;20524;-70
2021/01/10 01:03:55;;;;;;;17.87;10.90;;;;;;;;;;5065486;28;20476;-70
2021/01/10 01:06:21;;;;;;;15.50;9.80;;;;;;;;;;5077688;28;20484;-70
2021/01/10 01:08:48;;;;;;;15.23;11.00;;;;;;;;;;5067941;28;20553;-69
2021/01/10 01:11:16;;;;;;;19.27;11.20;;;;;;;;;;5066217;28;20541;-70
2021/01/10 01:13:42;;;;;;;17.07;10.17;;;;;;;;;;5070986;28;20473;-70
2021/01/10 01:16:09;;;;;;;17.37;11.50;;;;;;;;;;5070800;28;20488;-70
2021/01/10 01:18:36;;;;;;;14.47;10.30;;;;;;;;;;5070782;28;20469;-70
2021/01/10 01:21:02;;;;;;;15.13;10.97;;;;;;;;;;5070503;28;20536;-69
2021/01/10 01:23:29;;;;;;;17.30;11.20;;;;;;;;;;5070937;28;21000;-69
2021/01/10 01:25:56;;;;;;;13.73;10.53;;;;;;;;;;5071218;28;20530;-70
2021/01/10 01:28:23;;;;;;;21.73;11.97;;;;;;;;;;5071103;28;20853;-70
2021/01/10 01:30:50;;;;;;;17.80;10.80;;;;;;;;;;5070503;28;20452;-70
2021/01/10 01:33:17;;;;;;;16.63;11.20;;;;;;;;;;5070355;28;20536;-70
2021/01/10 01:35:43;;;;;;;16.60;11.53;;;;;;;;;;5070465;28;20550;-70
2021/01/10 01:38:10;;;;;;;19.80;10.63;;;;;;;;;;5070879;28;20530;-70
2021/01/10 01:40:37;;;;;;;15.70;10.40;;;;;;;;;;5070639;28;20533;-69
2021/01/10 01:43:03;;;;;;;13.40;10.77;;;;;;;;;;5070106;28;20579;-70
2021/01/10 01:45:31;;;;;;;16.13;9.43;;;;;;;;;;5070515;28;20533;-70
2021/01/10 01:47:57;;;;;;;15.30;10.67;;;;;;;;;;5070448;28;20468;-70
2021/01/10 01:50:24;;;;;;;17.70;10.57;;;;;;;;;;5070500;28;20450;-69
2021/01/10 01:52:51;;;;;;;16.23;10.60;;;;;;;;;;5070607;28;20457;-69
2021/01/10 01:55:18;;;;;;;15.57;11.43;;;;;;;;;;5070142;28;20504;-69
2021/01/10 01:57:44;;;;;;;17.07;11.77;;;;;;;;;;5070618;28;20452;-69
2021/01/10 02:00:12;;;;;;;17.63;11.13;;;;;;;;;;5069577;28;20511;-69
2021/01/10 02:02:39;;;;;;;12.87;10.40;;;;;;;;;;5070072;28;20449;-70
2021/01/10 02:05:07;;;;;;;14.97;10.27;;;;;;;;;;5069405;28;20965;-69
2021/01/10 02:07:40;;;;;;;12.67;9.60;;;;;;;;;;5071216;28;20578;-70
2021/01/10 02:10:07;;;;;;;21.03;10.67;;;;;;;;;;5076388;28;20445;-70
2021/01/10 02:12:36;;;;;;;16.33;11.33;;;;;;;;;;5076564;28;20445;-70
2021/01/10 02:15:07;;;;;;;14.53;9.60;;;;;;;;;;5076838;28;20532;-70
2021/01/10 02:17:35;;;;;;;14.97;9.87;;;;;;;;;;5077545;28;20768;-69
2021/01/10 02:20:06;;;;;;;19.17;10.27;;;;;;;;;;5076625;28;20536;-69
2021/01/10 02:22:39;;;;;;;16.53;10.00;;;2.10;99.90;;;;;;5076272;28;20445;-69
2021/01/10 02:25:07;;;;;;;14.00;9.13;;;1.30;99.90;;;;;;5076595;28;20532;-69
2021/01/10 02:27:34;;;;;;;14.47;9.50;;;1.50;1.00;;;;;;5077301;28;20537;-69
2021/01/10 02:30:01;;;;;;;17.37;10.37;;;1.10;1.00;;;;;;5076604;28;20491;-69
2021/01/10 02:32:30;;;;;;;13.27;8.23;;;0.60;99.90;;;;;;5076464;28;20448;-70
2021/01/10 02:34:59;;;;;;;14.47;9.30;;;0.50;1.00;;;;;;5076880;28;20452;-70
2021/01/10 02:37:45;;;;;;;13.80;9.37;;;0.40;1.00;;;;;;5077060;28;20483;-69
2021/01/10 02:40:14;;;;;;;12.13;8.43;;;0.60;1.00;;;;;;5076577;28;20531;-69
2021/01/10 02:42:48;;;;;;;11.67;8.33;;;0.70;1.00;;;;;;5076200;28;20552;-69
2021/01/10 02:45:20;;;;;;;12.97;9.07;;;0.90;1.00;;;;;;5076837;28;20595;-69
2021/01/10 02:47:46;;;;;;;11.57;7.70;;;1.10;99.90;;;;;;5077064;28;20539;-69
2021/01/10 02:50:17;;;;;;;11.23;7.83;;;1.20;1.00;;;;;;5076125;28;20531;-69
2021/01/10 02:52:45;;;;;;;11.83;8.17;;;1.40;99.90;;;;;;5076433;28;20821;-69
2021/01/10 02:55:13;;;;;;;11.60;8.83;;;1.70;1.00;;;;;;5076200;28;20442;-69
2021/01/10 02:57:43;;;;;;;12.70;8.20;;;1.60;1.00;;;;;;5076900;28;20449;-70
2021/01/10 03:00:11;;;;;;;14.77;8.97;;;1.50;99.90;;;;;;5076263;28;20543;-69
2021/01/10 03:02:38;;;;;;;14.30;9.13;;;1.60;1.00;;;;;;5075906;28;20452;-69
2021/01/10 03:05:06;;;;;;;11.90;8.17;;;1.60;99.90;;;;;;5076110;28;20591;-70
2021/01/10 03:07:34;;;;;;;12.30;8.00;;;1.40;99.90;;;;;;5076692;28;20480;-69
2021/01/10 03:10:01;;;;;;;11.90;6.93;;;1.30;99.90;;;;;;5076295;28;20536;-69
2021/01/10 03:12:28;;;;;;;15.47;8.90;;;1.40;99.90;;;;;;5076253;28;20441;-69
2021/01/10 03:14:56;;;;;;;19.93;11.17;;;1.60;99.90;;;;;;5076532;28;20464;-69
2021/01/10 03:17:33;;;;;;;13.67;8.87;;;1.30;99.90;;;;;;5076339;28;20488;-70
2021/01/10 03:20:00;;;;;;;16.23;10.00;;;1.30;1.00;;;;;;5074155;28;20524;-69
2021/01/10 03:22:27;;;;;;;12.83;8.83;;;1.10;1.00;;;;;;5073192;28;20553;-69
2021/01/10 03:24:54;;;;;;;11.67;8.87;;;1.20;1.00;;;;;;5073398;28;20476;-69
2021/01/10 03:27:20;;;;;;;15.70;9.23;;;1.20;1.00;;;;;;5072934;28;20519;-69
2021/01/10 03:29:48;;;;;;;12.53;9.07;;;1.00;1.00;;;;;;5073321;28;20493;-69
2021/01/10 03:32:14;;;;;;;12.90;9.57;;;1.00;1.00;;;;;;5076211;28;20503;-69
2021/01/10 03:34:41;;;;;;;12.80;8.03;;;1.10;1.00;;;;;;5073278;28;20452;-70
2021/01/10 03:37:08;;;;;;;13.17;8.70;;;0.70;1.00;;;;;;5072547;28;20578;-69
2021/01/10 03:39:34;;;;;;;12.27;7.87;;;0.30;99.90;;;;;;5073385;28;20564;-70
2021/01/10 03:42:01;;;;;;;11.70;6.83;;;0.20;1.00;;;;;;5072672;28;20531;-69
2021/01/10 03:44:27;;;;;;;13.90;7.93;;;0.30;99.90;;;;;;5072891;28;20833;-69
2021/01/10 03:46:55;;;;;;;10.33;6.97;;;0.70;99.90;;;;;;5073074;28;20484;-69
2021/01/10 03:49:21;;;;;;;14.33;7.17;;;0.70;1.00;;;;;;5072256;28;20494;-69
2021/01/10 03:51:48;;;;;;;12.70;8.50;;;0.70;99.90;;;;;;5072304;28;20451;-69
2021/01/10 03:54:14;;;;;;;14.73;8.47;;;0.70;1.00;;;;;;5072119;28;20590;-69
2021/01/10 03:56:41;;;;;;;13.47;8.77;;;0.70;1.00;;;;;;5073015;28;20463;-69
2021/01/10 03:59:07;;;;;;;11.10;8.03;;;;;;;;;;5072028;28;20455;-69
2021/01/10 04:01:34;;;;;;;13.60;8.20;;;0.70;1.00;;;;;;5072009;28;20517;-70
2021/01/10 04:04:01;;;;;;;12.83;7.83;;;1.00;1.00;;;;;;5072178;28;20564;-70
2021/01/10 04:06:28;;;;;;;12.53;8.50;;;1.30;1.00;;;;;;5072365;28;20544;-69
2021/01/10 04:08:55;;;;;;;13.77;8.70;;;1.20;99.90;;;;;;5072683;28;20456;-71
2021/01/10 04:11:22;;;;;;;13.40;8.20;;;1.00;33.40;;;;;;5071453;28;20882;-70
2021/01/10 04:13:48;;;;;;;13.00;9.57;;;0.40;1.00;;;;;;5072374;28;20540;-70
2021/01/10 04:16:15;;;;;;;11.00;8.40;;;0.30;99.90;;;;;;5071970;28;20539;-69
2021/01/10 04:18:41;;;;;;;12.63;8.30;;;0.20;99.90;;;;;;5072470;28;20552;-70
2021/01/10 04:21:09;;;;;;;15.37;8.53;;;0.40;1.00;;;;;;5071713;28;20450;-70
2021/01/10 04:23:35;;;;;;;17.07;9.50;;;0.40;99.90;;;;;;5071462;28;20573;-69
2021/01/10 04:26:02;;;;;;;14.30;8.80;;;0.50;99.90;;;;;;5071787;28;20452;-69
2021/01/10 04:28:28;;;;;;;12.23;8.77;;;0.60;99.90;;;;;;5072170;28;20452;-70
2021/01/10 04:30:55;;;;;;;12.37;7.30;;;0.70;99.90;;;;;;5071698;28;20445;-70
2021/01/10 04:33:22;;;;;;;13.10;8.43;;;0.90;6.60;;;;;;5071878;28;20548;-70
2021/01/10 04:35:49;;;;;;;10.20;6.90;;;0.50;99.90;;;;;;5071752;28;20457;-69
2021/01/10 04:38:16;;;;;;;14.23;7.43;;;0.60;99.90;;;;;;5071187;28;20880;-69
2021/01/10 04:40:42;;;;;;;10.23;7.77;;;0.60;99.90;;;;;;5071853;28;20523;-69
2021/01/10 04:43:09;;;;;;;8.97;7.17;;;0.80;68.50;;;;;;5071004;28;20574;-70
2021/01/10 04:45:36;;;;;;;11.40;7.13;;;0.90;1.00;;;;;;5071643;28;20531;-70
2021/01/10 04:48:04;;;;;;;11.17;8.43;;;1.10;1.00;;;;;;5071355;28;20970;-70
2021/01/10 04:50:33;;;;;;;12.27;8.37;;;1.10;99.90;;;;;;5071460;28;20817;-70
2021/01/10 04:53:01;;;;;;;14.87;9.30;;;1.40;99.90;;;;;;5070297;28;20448;-69
2021/01/10 04:55:30;;;;;;;13.43;7.87;;;1.40;1.00;;;;;;5071892;28;20515;-69
2021/01/10 04:58:03;;;;;;;13.23;7.70;;;1.20;31.70;;;;;;5092280;28;20525;-69
2021/01/10 05:00:31;;;;;;;12.87;8.73;;;1.10;99.90;;;;;;5086921;28;20490;-69
2021/01/10 05:03:04;;;;;;;14.73;9.30;;;1.20;99.90;;;;;;5070597;28;21010;-69
2021/01/10 05:05:32;;;;;;;12.73;8.40;;;1.10;99.90;;;;;;5071098;28;20536;-69
2021/01/10 05:07:59;;;;;;;12.90;8.10;;;1.30;99.90;;;;;;5071105;28;20568;-70
2021/01/10 05:10:26;;;;;;;17.47;8.73;;;1.40;1.00;;;;;;5068361;28;20529;-70
2021/01/10 05:12:53;;;;;;;9.43;7.70;;;1.60;99.90;;;;;;5071302;28;20524;-69
2021/01/10 05:15:19;;;;;;;10.03;6.93;;;1.60;1.00;;;;;;5070684;28;20456;-70
2021/01/10 05:17:53;;;;;;;15.40;7.43;;;1.60;1.00;;;;;;5071163;28;20854;-70
2021/01/10 05:20:20;;;;;;;14.23;8.47;;;1.70;19.60;;;;;;5070775;28;20445;-69
2021/01/10 05:22:50;;;;;;;13.90;8.10;;;1.50;53.00;;;;;;5070468;28;21116;-69
2021/01/10 05:25:16;;;;;;;9.30;6.50;;;1.50;99.90;;;;;;5070443;28;20453;-70
2021/01/10 05:27:46;;;;;;;10.50;7.00;;;1.50;99.90;;;;;;5071052;28;21198;-69
2021/01/10 05:30:16;;;;;;;10.87;6.60;;;1.40;1.00;;;;;;5070430;28;20449;-69
2021/01/10 05:32:43;;;;;;;10.30;7.33;;;1.30;81.60;;;;;;5073928;28;20533;-69
2021/01/10 05:35:10;;;;;;;10.87;7.10;;;1.50;1.00;;;;;;5070316;28;20456;-70
2021/01/10 05:37:37;;;;;;;11.17;8.03;;;1.30;23.90;;;;;;5070752;28;20533;-69
2021/01/10 05:40:07;;;;;;;11.80;7.63;;;1.30;99.90;;;;;;5070527;28;20455;-69
2021/01/10 05:42:35;;;;;;;10.23;7.53;;;1.20;1.00;;;;;;5070199;28;20455;-69
2021/01/10 05:45:02;;;;;;;10.97;7.67;;;1.20;1.00;;;;;;5070468;28;20481;-70
2021/01/10 05:47:39;;;;;;;12.00;7.67;;;1.20;28.60;;;;;;5070648;28;20567;-69
2021/01/10 05:50:15;;;;;;;12.47;7.70;;;1.40;99.90;;;;;;5073080;28;20452;-69
2021/01/10 05:52:41;;;;;;;9.87;6.37;;;1.50;99.90;;;;;;5070683;28;20456;-70
2021/01/10 05:55:11;;;;;;;10.83;8.40;;;1.50;1.00;;;;;;5070351;28;20454;-70
2021/01/10 05:57:38;;;;;;;11.47;7.70;;;1.50;1.00;;;;;;5070576;28;20532;-70
2021/01/10 06:00:06;;;;;;;10.77;8.30;;;1.60;1.00;;;;;;5070031;28;20532;-70
2021/01/10 06:02:34;;;;;;;9.27;6.87;;;1.60;1.00;;;;;;5070437;28;20537;-70
2021/01/10 06:05:12;;;;;;;10.03;7.70;;;1.50;1.00;;;;;;5070420;28;20574;-70
2021/01/10 06:07:40;;;;;;;8.63;6.70;;;1.50;99.90;;;;;;5070114;28;20485;-71
2021/01/10 06:10:08;;;;;;;10.87;8.13;;;1.50;90.50;;;;;;5069450;28;20529;-70
2021/01/10 06:12:35;;;;;;;10.30;6.57;;;1.40;86.50;;;;;;5070092;28;20450;-70
2021/01/10 06:15:12;;;;;;;9.37;7.10;;;1.40;1.00;;;;;;5070029;28;20588;-70
2021/01/10 06:17:43;;;;;;;9.03;7.10;;;1.30;94.90;;;;;;5069972;28;20485;-69
2021/01/10 06:20:25;;;;;;;12.27;7.90;;;1.40;99.90;;;;;;5070121;28;20489;-70
2021/01/10 06:22:53;;;;;;;10.47;7.23;;;1.20;1.00;;;;;;5070033;28;20517;-69
2021/01/10 06:25:21;;;;;;;12.70;8.10;;;1.30;99.90;;;;;;5070305;28;20531;-69
2021/01/10 06:27:55;;;;;;;12.63;7.30;;;1.40;99.90;;;;;;5069910;28;20966;-70
2021/01/10 06:30:27;;;;;;;12.20;8.13;;;1.40;99.90;;;;;;5069940;28;20449;-69
2021/01/10 06:32:59;;;;;;;12.47;8.47;;;1.10;99.90;;;;;;5070059;28;21008;-69
2021/01/10 06:35:31;;;;;;;11.90;7.80;;;1.10;2.40;;;;;;5070319;28;20590;-69
2021/01/10 06:37:58;;;;;;;10.03;8.03;;;1.50;99.90;;;;;;5069489;28;20546;-70
2021/01/10 06:40:25;;;;;;;11.27;7.27;;;1.70;74.40;;;;;;5070135;28;20449;-69
2021/01/10 06:42:56;;;;;;;11.63;8.17;;;1.80;1.00;;;;;;5069802;28;21014;-69
2021/01/10 06:45:28;;;;;;;10.30;8.37;;;1.70;1.00;;;;;;5071213;28;20495;-70
2021/01/10 06:47:55;;;;;;;10.07;6.63;;;1.70;99.90;;;;;;5074989;28;20527;-69
2021/01/10 06:50:22;;;;;;;15.63;7.40;;;1.50;99.90;;;;;;5069878;28;20818;-70
2021/01/10 06:52:51;;;;;;;11.60;7.30;;;1.30;1.00;;;;;;5070067;28;20457;-69
2021/01/10 06:55:18;;;;;;;10.10;7.90;;;1.30;99.90;;;;;;5070735;28;20568;-69
2021/01/10 06:57:44;;;;;;;11.30;7.80;;;1.20;1.10;;;;;;5073607;28;20449;-69
2021/01/10 07:00:12;;;;;;;10.30;6.90;;;1.20;99.90;;;;;;5068706;28;20949;-69
2021/01/10 07:03:10;;;;;;;11.87;7.90;;;1.20;99.90;;;;;;5073082;28;21228;-69
2021/01/10 07:06:01;;;;;;;10.00;7.40;;;1.80;99.90;;;;;;5073723;28;20441;-69
2021/01/10 07:08:32;;;;;;;8.47;7.23;;;1.90;1.00;;;;;;5073539;28;20507;-69
2021/01/10 07:11:38;;;;;;;11.57;7.00;;;2.70;44.10;;;;;;5072672;28;20454;-69
2021/01/10 07:14:29;;;;;;;10.70;7.20;;;2.80;99.90;;;;;;5073090;28;20548;-69
2021/01/10 07:17:16;;;;;;;11.83;7.47;;;2.60;99.90;;;;;;5073350;28;20524;-69
2021/01/10 07:19:44;;;;;;;13.03;7.70;;;2.10;1.00;;;;;;5073847;28;20449;-69
2021/01/10 07:22:27;;;;;;;10.43;7.53;;;2.00;1.00;;;;;;5072336;28;20488;-69
2021/01/10 07:24:55;;;;;;;10.67;7.27;;;1.70;1.00;;;;;;5073386;28;20553;-69
2021/01/10 07:27:32;;;;;;;11.83;8.17;;;1.70;1.00;;;;;;5073017;28;20560;-70
2021/01/10 07:29:59;;;;;;;14.07;7.90;;;1.50;99.90;;;;;;5072957;28;20540;-70
2021/01/10 07:32:36;;;;;;;11.67;8.00;;;1.70;1.00;;;;;;5073120;28;20449;-70
2021/01/10 07:35:06;;;;;;;9.70;7.30;;;1.60;99.90;;;;;;5070494;28;20484;-70
2021/01/10 07:37:33;;;;;;;11.30;7.63;;;1.60;99.90;;;;;;5073291;28;20453;-70
2021/01/10 07:40:03;;;;;;;12.10;7.03;;;1.50;99.90;;;;;;5072811;28;20533;-70
2021/01/10 07:42:31;;;;;;;10.17;7.67;;;1.40;1.00;;;;;;5072668;28;20539;-70
2021/01/10 07:45:00;;;;;;;16.73;8.90;;;1.40;81.50;;;;;;5072761;28;20520;-70
2021/01/10 07:47:42;;;;;;;12.53;7.93;;;1.50;99.90;;;;;;5072859;28;20452;-70
2021/01/10 07:50:19;;;;;;;11.57;7.33;;;1.80;1.00;;;;;;5072165;28;20441;-70
2021/01/10 07:52:54;;;;;;;11.40;7.50;;;1.60;25.60;;;;;;5072516;28;20460;-70
2021/01/10 07:55:30;;;;;;;12.20;7.80;;;1.60;1.00;;;;;;5072710;28;20797;-70
2021/01/10 07:58:21;;;;;;;12.77;8.30;;;1.70;1.00;;;;;;5072717;28;20477;-70
2021/01/10 08:00:51;;;;;;;12.93;7.73;;;1.70;1.00;;;;;;5072971;28;20821;-70
2021/01/10 08:03:25;;;;;;;10.20;7.30;;;1.70;1.00;;;;;;5071592;28;20563;-70
2021/01/10 08:06:01;;;;;;;10.67;8.97;;;1.80;1.00;;;;;;5072154;28;20442;-70
2021/01/10 08:08:43;;;;;;;13.60;8.10;;;1.80;1.00;;;;;;5072609;28;20481;-70
2021/01/10 08:11:10;;;;;;;9.43;7.43;;;1.70;1.00;;;;;;5071891;28;20452;-70
2021/01/10 08:13:38;;;;;;;13.83;8.17;;;1.80;99.90;;;;;;5072537;28;20946;-70
2021/01/10 08:16:07;;;;;;;11.17;8.53;;;1.90;10.40;;;;;;5071870;28;20474;-69
2021/01/10 08:18:36;;;;;;;9.60;7.23;;;1.60;99.90;;;;;;5072103;28;20450;-71
2021/01/10 08:21:05;;;;;;;9.90;6.77;;;1.60;31.90;;;;;;5072034;28;20593;-70
2021/01/10 08:23:32;;;;;;;10.23;6.80;;;1.60;1.00;;;;;;5060085;28;20517;-71
2021/01/10 08:26:07;;;;;;;12.90;7.90;;;1.80;1.00;;;;;;5072012;28;20469;-71
2021/01/10 08:28:35;;;;;;;9.43;5.83;;;1.50;1.00;;;;;;5072482;28;20518;-70
2021/01/10 08:31:04;;;;;;;12.07;7.60;;;1.60;99.90;;;;;;5071051;28;20452;-71
2021/01/10 08:33:31;;;;;;;20.70;8.50;;;1.80;99.90;;;;;;5071486;28;20531;-70
2021/01/10 08:36:15;;;;;;;11.80;7.60;;;2.00;99.90;;;;;;5074538;28;20441;-69
2021/01/10 08:38:49;;;;;;;11.23;7.83;;;1.60;1.00;;;;;;5087399;28;20477;-68
2021/01/10 08:41:25;;;;;;;11.33;8.20;;;2.00;99.90;;;;;;5058349;28;20438;-69
2021/01/10 08:43:54;;;;;;;9.63;7.23;;;2.00;1.00;;;;;;5071813;28;20509;-69
2021/01/10 08:46:21;;;;;;;10.87;7.30;;;2.00;99.90;;;;;;5071570;28;20529;-69
2021/01/10 08:48:47;;;;;;;10.77;8.63;;;2.00;99.90;;;;;;5071982;28;20735;-69
2021/01/10 08:51:32;;;;;;;11.90;7.30;;;1.80;1.00;;;;;;5071346;28;20537;-69
2021/01/10 08:53:59;;;;;;;12.33;8.20;;;1.80;99.90;;;;;;5068744;28;21018;-70
2021/01/10 08:56:26;;;;;;;11.47;6.60;;;1.90;99.90;;;;;;5082991;28;20480;-69
2021/01/10 08:58:57;;;;;;;13.10;7.67;;;2.10;1.00;;;;;;5086405;28;20446;-69
2021/01/10 09:01:24;;;;;;;12.70;9.23;;;2.00;1.00;;;;;;5072918;28;20937;-69
2021/01/10 09:03:58;;;;;;;12.73;8.10;;;1.80;1.00;;;;;;5073448;28;20571;-69
2021/01/10 09:06:29;;;;;;;10.57;7.10;;;1.90;99.90;;;;;;5071798;28;20528;-69
2021/01/10 09:09:01;;;;;;;12.83;7.90;;;2.30;99.90;;;;;;5071441;28;20997;-69
2021/01/10 09:11:30;;;;;;;10.00;7.30;;;2.30;1.00;;;;;;5070382;28;20488;-70
2021/01/10 09:14:01;;;;;;;13.50;8.83;;;2.20;99.90;;;;;;5071171;28;20446;-69
2021/01/10 09:16:30;;;;;;;12.10;9.67;;;2.20;6.70;;;;;;5071198;28;20493;-70
2021/01/10 09:18:58;;;;;;;16.20;9.80;;;2.00;1.00;;;;;;5070165;28;20473;-70
2021/01/10 09:21:27;;;;;;;16.27;10.00;;;2.10;1.00;;;;;;5070636;28;20531;-75
2021/01/10 09:23:56;;;;;;;15.30;8.83;;;2.10;1.00;;;;;;5070754;28;20524;-69
2021/01/10 09:26:30;;;;;;;20.77;11.80;;;2.20;99.90;;;;;;5070922;28;20534;-70
2021/01/10 09:28:58;;;;;;;16.70;9.10;;;2.20;1.00;;;;;;5071304;28;20481;-70
2021/01/10 09:31:39;;;;;;;14.40;8.70;;;2.10;1.00;;;;;;5070734;28;20458;-70
2021/01/10 09:34:06;;;;;;;13.00;8.87;;;2.10;99.90;;;;;;5060421;28;20485;-69
2021/01/10 09:36:32;;;;;;;10.77;8.10;;;2.10;99.90;;;;;;5079228;28;20897;-72
2021/01/10 09:38:59;;;;;;;9.63;7.47;;;2.30;1.00;;;;;;5073644;28;20452;-72
2021/01/10 09:41:25;;;;;;;10.27;8.13;;;;;;;;;;5075343;28;20480;-71
2021/01/10 09:43:53;;;;;;;16.90;8.93;;;2.30;40.10;;;;;;5083406;28;20547;-71
2021/01/10 09:46:31;;;;;;;12.00;8.07;;;2.90;99.90;;;;;;5076056;28;20529;-72
2021/01/10 09:49:00;;;;;;;11.13;7.33;;;2.40;31.80;;;;;;5068269;28;20448;-71
2021/01/10 09:51:35;;;;;;;9.97;7.33;;;2.30;63.30;;;;;;5070693;28;20453;-71
2021/01/10 09:54:15;;;;;;;12.00;7.90;;;2.30;99.90;;;;;;5079032;28;20485;-71
2021/01/10 09:56:46;;;;;;;10.27;7.47;;;2.20;99.90;;;;;;5063122;28;20446;-71
2021/01/10 09:59:39;;;;;;;8.90;7.47;;;2.00;99.90;;;;;;5078133;28;20443;-71
2021/01/10 10:02:14;;;;;;;13.60;8.97;;;2.20;10.70;;;;;;5073827;28;20437;-72
2021/01/10 10:04:41;;;;;;;10.43;7.40;;;2.20;1.00;;;;;;5070349;28;20535;-71
2021/01/10 10:07:08;;;;;;;13.33;7.77;;;2.30;99.90;;;;;;5073589;28;20551;-70
2021/01/10 10:09:54;;;;;;;10.77;8.60;;;2.20;94.60;;;;;;5071801;28;20948;-71
2021/01/10 10:12:22;;;;;;;11.00;7.13;;;2.00;1.00;;;;;;5051651;28;20518;-72
2021/01/10 10:14:59;;;;;;;12.80;8.10;;;2.10;1.00;;;;;;5065574;28;20529;-71
2021/01/10 10:17:29;;;;;;;10.03;7.40;;;2.10;1.00;;;;;;5076557;28;20526;-71
2021/01/10 10:19:56;;;;;;;11.10;7.70;;;1.90;1.00;;;;;;5078598;28;20536;-71
2021/01/10 10:22:24;;;;;;;11.53;7.23;;;2.00;99.90;;;;;;5058282;28;20541;-71
2021/01/10 10:24:51;;;;;;;10.30;8.23;;;2.10;1.00;;;;;;5075109;28;20519;-71
2021/01/10 10:27:18;;;;;;;11.10;7.50;;;2.20;1.00;;;;;;5080807;28;20887;-71
2021/01/10 10:29:45;;;;;;;10.10;8.00;;;2.20;1.00;;;;;;5059884;28;20479;-71
2021/01/10 10:32:12;;;;;;;12.20;7.50;;;2.30;1.00;;;;;;5066672;28;20817;-71
2021/01/10 10:34:39;;;;;;;10.67;6.77;;;2.20;1.00;;;;;;5085269;28;20535;-71
2021/01/10 10:37:07;;;;;;;12.83;7.23;;;2.30;1.00;;;;;;5092763;28;20444;-71
2021/01/10 10:39:34;;;;;;;11.70;7.10;;;2.30;99.90;;;;;;5070518;28;20444;-70
2021/01/10 10:42:01;;;;;;;16.50;8.27;;;2.20;99.90;;;;;;5071263;28;20462;-69
2021/01/10 10:44:27;;;;;;;11.03;7.63;;;2.30;1.00;;;;;;5091414;28;20479;-69
2021/01/10 10:46:54;;;;;;;10.40;7.30;;;2.40;4.00;;;;;;5070587;28;20584;-69
2021/01/10 10:49:20;;;;;;;11.23;7.33;;;2.70;1.00;;;;;;5076751;28;20866;-69
2021/01/10 10:51:48;;;;;;;18.60;7.30;;;2.50;1.00;;;;;;5077930;28;20589;-70
2021/01/10 10:54:14;;;;;;;9.87;7.53;;;2.40;1.00;;;;;;5081159;28;20466;-69
2021/01/10 10:56:41;;;;;;;11.33;7.50;;;2.30;99.90;;;;;;5063154;28;20949;-70
2021/01/10 10:59:08;;;;;;;10.57;6.17;;;2.70;99.90;;;;;;5084218;28;20455;-69
2021/01/10 11:01:42;;;;;;;12.00;7.83;;;2.70;1.00;;;;;;5076111;28;20446;-69
2021/01/10 11:04:09;;;;;;;10.63;6.40;;;2.60;1.00;;;;;;5075947;28;20523;-70
2021/01/10 11:06:36;;;;;;;8.00;6.70;;;2.50;1.00;;;;;;5069077;28;20453;-74
2021/01/10 11:09:05;;;;;;;12.73;7.50;;;2.40;61.50;;;;;;5084539;28;20527;-69
2021/01/10 11:11:39;;;;;;;8.90;6.93;;;2.50;11.20;;;;;;5089247;28;20531;-69
2021/01/10 11:14:07;;;;;;;14.27;7.37;;;2.50;1.00;;;;;;5062835;28;20434;-69
2021/01/10 11:16:35;;;;;;;9.80;6.37;;;2.70;99.90;;;;;;5075690;28;20843;-69
2021/01/10 11:19:02;;;;;;;8.97;6.57;;;2.70;99.90;;;;;;5087773;28;20531;-69
2021/01/10 11:21:30;;;;;;;10.23;7.50;;;2.80;99.90;;;;;;5066896;28;20479;-69
2021/01/10 11:23:57;;;;;;;11.80;7.67;;;2.80;1.00;;;;;;5066620;28;20478;-69
2021/01/10 11:26:24;;;;;;;9.47;6.37;;;2.80;1.00;;;;;;5080304;28;20444;-70
2021/01/10 11:28:51;;;;;;;10.40;6.87;;;3.00;1.00;;;;;;5087802;28;20521;-69
2021/01/10 11:31:17;;;;;;;12.90;7.37;;;3.20;99.90;;;;;;5072041;28;20782;-71
2021/01/10 11:33:44;;;;;;;9.30;7.10;;;3.10;1.00;;;;;;5072750;28;20444;-71
2021/01/10 11:36:11;;;;;;;12.47;7.87;;;;;;;;;;5087258;28;20455;-72
2021/01/10 11:38:37;;;;;;;9.57;7.23;;;3.10;1.00;;;;;;5075574;28;20543;-72
2021/01/10 11:41:13;;;;;;;11.73;7.30;;;3.60;1.00;;;;;;5069495;28;20531;-72
2021/01/10 11:43:40;;;;;;;11.73;7.83;;;3.20;99.90;;;;;;5063997;28;20489;-72
2021/01/10 11:46:08;;;;;;;16.47;8.30;;;2.90;1.00;;;;;;5059364;28;20500;-71
2021/01/10 11:48:35;;;;;;;9.27;7.57;;;2.90;1.00;;;;;;5075160;28;20520;-73
2021/01/10 11:51:03;;;;;;;10.27;7.27;;;2.80;1.00;;;;;;5073728;28;20538;-72
2021/01/10 11:53:29;;;;;;;11.50;8.00;;;2.90;1.00;;;;;;5073832;28;20539;-72
2021/01/10 11:55:56;;;;;;;12.30;8.03;;;2.80;2.70;;;;;;5072997;28;20453;-72
2021/01/10 11:58:22;;;;;;;12.07;7.57;;;2.90;25.70;;;;;;5073135;28;20445;-72
2021/01/10 12:00:54;;;;;;;13.40;9.80;;;2.80;1.00;;;;;;5074257;28;20481;-72
2021/01/10 12:03:21;;;;;;;12.53;7.13;;;2.80;99.90;;;;;;5065964;28;20528;-71
2021/01/10 12:05:48;;;;;;;10.30;6.43;;;2.90;99.90;;;;;;5069790;28;20474;-75
2021/01/10 12:08:15;;;;;;;9.07;7.07;;;3.00;1.00;;;;;;5069334;28;20480;-72
2021/01/10 12:10:42;;;;;;;10.60;6.40;;;3.10;99.90;;;;;;5070586;28;20901;-72
2021/01/10 12:13:09;;;;;;;7.10;6.33;;;3.10;99.90;;;;;;5067896;28;20462;-71
2021/01/10 12:15:36;;;;;;;7.40;5.73;;;2.90;99.90;;;;;;5064765;28;20543;-70
2021/01/10 12:18:05;;;;;;;9.47;7.00;;;3.10;1.00;;;;;;5068192;28;20914;-71
2021/01/10 12:20:32;;;;;;;7.83;5.77;;;3.10;99.90;;;;;;5067664;28;20452;-70
2021/01/10 12:22:59;;;;;;;13.83;6.83;;;3.00;99.90;;;;;;5064151;28;20893;-70
2021/01/10 12:25:25;;;;;;;9.90;6.80;;;3.20;1.00;;;;;;5057322;28;20564;-71
2021/01/10 12:27:52;;;;;;;8.50;6.00;;;3.20;1.00;;;;;;5066264;28;20471;-70
2021/01/10 12:30:20;;;;;;;8.70;6.47;;;3.10;26.00;;;;;;5069491;28;21048;-69
2021/01/10 12:32:46;;;;;;;7.57;5.47;;;3.10;1.00;;;;;;5068538;28;20441;-69
2021/01/10 12:35:16;;;;;;;8.80;6.20;;;3.10;1.00;;;;;;5070643;28;20454;-70
2021/01/10 12:37:43;;;;;;;9.20;5.97;;;3.10;1.00;;;;;;5068945;28;20571;-70
2021/01/10 12:40:11;;;;;;;7.80;5.50;;;3.20;1.00;;;;;;5064559;28;20560;-70
2021/01/10 12:42:38;;;;;;;6.83;4.77;;;3.20;1.00;;;;;;5065061;28;20585;-71
2021/01/10 12:45:07;;;;;;;10.37;6.50;;;3.10;1.00;;;;;;5066884;28;20513;-71
2021/01/10 12:47:33;;;;;;;6.83;5.33;;;3.10;1.00;;;;;;5068048;28;20947;-71
2021/01/10 12:49:59;;;;;;;5.97;4.60;;;2.90;1.00;;;;;;5065460;28;20546;-71
2021/01/10 12:52:27;;;;;;;5.70;4.67;;;2.90;1.00;;;;;;5073617;28;20555;-71
2021/01/10 12:54:53;;;;;;;7.90;5.20;;;3.00;1.00;;;;;;5078698;28;20532;-71
2021/01/10 12:57:20;;;;;;;7.70;5.60;;;2.80;41.20;;;;;;5066030;28;21435;-71
2021/01/10 12:59:46;;;;;;;8.17;5.20;;;2.90;7.40;;;;;;5068621;28;20529;-70
2021/01/10 13:02:12;;;;;;;8.83;5.70;;;3.00;1.00;;;;;;5063032;28;20529;-71
2021/01/10 13:04:39;;;;;;;8.03;4.60;;;3.10;1.00;;;;;;5066967;28;20579;-71
2021/01/10 13:07:06;;;;;;;6.83;4.67;;;3.10;1.00;;;;;;5066581;28;20477;-71
2021/01/10 13:09:35;;;;;;;5.83;4.37;;;3.10;99.90;;;;;;5068168;28;20555;-70
2021/01/10 13:12:02;;;;;;;6.13;4.67;;;3.10;1.00;;;;;;5068229;28;20913;-71
2021/01/10 13:14:28;;;;;;;9.50;5.57;;;3.20;99.90;;;;;;5068751;28;20473;-70
2021/01/10 13:16:55;;;;;;;6.43;4.33;;;3.20;99.90;;;;;;5068582;28;20506;-69
2021/01/10 13:19:22;;;;;;;8.63;5.50;;;3.20;99.90;;;;;;5068451;28;20464;-69